sensor_id;sensor_type;location;lat;lon;timestamp;pressure;altitude;pressure_sealevel;temperature;humidity
7264;BME280;3673;52.480;13.348;2023-05-10T00:01:27;100773.03;;;18.71;35.57
7264;BME280;3673;52.480;13.348;2023-05-10T00:03:54;100777.03;;;18.57;35.95
7264;BME280;3673;52.480;13.348;2023-05-10T00:06:22;100790.97;;;18.62;35.53
7264;BME280;3673;52.480;13.348;2023-05-10T00:08:49;100775.38;;;18.54;35.78
7264;BME280;3673;52.480;13.348;2023-05-10T00:11:16;100777.78;;;18.32;35.98
7264;BME280;3673;52.480;13.348;2023-05-10T00:13:43;100770.84;;;18.28;36.31
7264;BME280;3673;52.480;13.348;2023-05-10T00:16:09;100766.06;;;18.41;35.96
7264;BME280;3673;52.480;13.348;2023-05-10T00:18:38;100764.00;;;18.49;36.11
7264;BME280;3673;52.480;13.348;2023-05-10T00:21:05;100765.56;;;18.56;35.96
7264;BME280;3673;52.480;13.348;2023-05-10T00:23:33;100764.31;;;18.68;35.77
7264;BME280;3673;52.480;13.348;2023-05-10T00:26:00;100759.56;;;18.49;36.00
7264;BME280;3673;52.480;13.348;2023-05-10T00:28:27;100750.28;;;18.64;35.69
7264;BME280;3673;52.480;13.348;2023-05-10T00:30:54;100751.34;;;18.59;36.04
7264;BME280;3673;52.480;13.348;2023-05-10T00:33:22;100749.78;;;18.53;35.96
7264;BME280;3673;52.480;13.348;2023-05-10T00:35:48;100758.88;;;18.44;36.24
7264;BME280;3673;52.480;13.348;2023-05-10T00:38:15;100749.78;;;18.53;36.14
7264;BME280;3673;52.480;13.348;2023-05-10T00:40:44;100742.38;;;18.35;36.09
7264;BME280;3673;52.480;13.348;2023-05-10T00:43:11;100745.25;;;18.29;36.45
7264;BME280;3673;52.480;13.348;2023-05-10T00:45:39;100742.78;;;18.23;36.58
7264;BME280;3673;52.480;13.348;2023-05-10T00:48:07;100737.56;;;18.21;36.61
7264;BME280;3673;52.480;13.348;2023-05-10T00:50:34;100736.16;;;18.10;36.88
7264;BME280;3673;52.480;13.348;2023-05-10T00:53:01;100739.22;;;17.97;36.85
7264;BME280;3673;52.480;13.348;2023-05-10T00:55:29;100733.41;;;17.85;37.19
7264;BME280;3673;52.480;13.348;2023-05-10T00:57:57;100734.75;;;17.98;36.85
7264;BME280;3673;52.480;13.348;2023-05-10T01:00:25;100739.72;;;17.81;37.52
7264;BME280;3673;52.480;13.348;2023-05-10T01:02:53;100742.03;;;17.62;37.68
7264;BME280;3673;52.480;13.348;2023-05-10T01:05:20;100732.91;;;17.72;37.67
7264;BME280;3673;52.480;13.348;2023-05-10T01:07:47;100731.22;;;17.70;37.66
7264;BME280;3673;52.480;13.348;2023-05-10T01:10:14;100724.19;;;17.69;37.63
7264;BME280;3673;52.480;13.348;2023-05-10T01:12:43;100730.56;;;17.63;37.77
7264;BME280;3673;52.480;13.348;2023-05-10T01:15:13;100723.28;;;17.70;37.81
7264;BME280;3673;52.480;13.348;2023-05-10T01:17:43;100720.00;;;17.62;37.69
7264;BME280;3673;52.480;13.348;2023-05-10T01:20:11;100715.78;;;17.55;37.86
7264;BME280;3673;52.480;13.348;2023-05-10T01:26:16;100714.69;;;17.63;37.69
7264;BME280;3673;52.480;13.348;2023-05-10T01:29:14;100721.72;;;17.64;37.75
7264;BME280;3673;52.480;13.348;2023-05-10T01:32:19;100718.31;;;17.59;37.80
7264;BME280;3673;52.480;13.348;2023-05-10T01:34:59;100717.22;;;17.66;37.72
7264;BME280;3673;52.480;13.348;2023-05-10T01:37:37;100711.97;;;17.65;37.73
7264;BME280;3673;52.480;13.348;2023-05-10T01:40:15;100713.38;;;17.47;38.03
7264;BME280;3673;52.480;13.348;2023-05-10T01:42:49;100729.28;;;17.45;38.38
7264;BME280;3673;52.480;13.348;2023-05-10T01:45:25;100709.41;;;17.62;37.71
7264;BME280;3673;52.480;13.348;2023-05-10T01:48:03;100716.13;;;17.44;38.36
7264;BME280;3673;52.480;13.348;2023-05-10T01:50:32;100710.47;;;17.56;38.24
7264;BME280;3673;52.480;13.348;2023-05-10T01:53:01;100715.63;;;17.30;38.68
7264;BME280;3673;52.480;13.348;2023-05-10T01:55:32;100712.81;;;17.36;38.62
7264;BME280;3673;52.480;13.348;2023-05-10T01:58:07;100708.28;;;17.10;38.76
7264;BME280;3673;52.480;13.348;2023-05-10T02:00:35;100722.22;;;17.15;38.97
7264;BME280;3673;52.480;13.348;2023-05-10T02:03:07;100721.44;;;17.12;38.85
7264;BME280;3673;52.480;13.348;2023-05-10T02:05:36;100702.09;;;17.11;38.87
7264;BME280;3673;52.480;13.348;2023-05-10T02:08:06;100705.91;;;17.01;38.95
7264;BME280;3673;52.480;13.348;2023-05-10T02:10:34;100712.41;;;17.20;38.92
7264;BME280;3673;52.480;13.348;2023-05-10T02:13:03;100711.47;;;17.21;39.00
7264;BME280;3673;52.480;13.348;2023-05-10T02:15:32;100719.06;;;17.33;38.73
7264;BME280;3673;52.480;13.348;2023-05-10T02:18:00;100707.66;;;17.31;38.69
7264;BME280;3673;52.480;13.348;2023-05-10T02:20:31;100710.56;;;17.22;38.88
7264;BME280;3673;52.480;13.348;2023-05-10T02:22:59;100704.59;;;17.16;39.05
7264;BME280;3673;52.480;13.348;2023-05-10T02:25:28;100698.69;;;17.06;39.29
7264;BME280;3673;52.480;13.348;2023-05-10T02:27:57;100706.19;;;16.90;39.57
7264;BME280;3673;52.480;13.348;2023-05-10T02:30:24;100700.63;;;16.99;39.50
7264;BME280;3673;52.480;13.348;2023-05-10T02:32:52;100695.38;;;16.98;39.25
7264;BME280;3673;52.480;13.348;2023-05-10T02:35:20;100701.34;;;17.06;39.57
7264;BME280;3673;52.480;13.348;2023-05-10T02:37:49;100697.31;;;16.93;39.48
7264;BME280;3673;52.480;13.348;2023-05-10T02:40:17;100698.19;;;16.93;39.64
7264;BME280;3673;52.480;13.348;2023-05-10T02:42:44;100696.34;;;16.95;39.58
7264;BME280;3673;52.480;13.348;2023-05-10T02:45:18;100691.72;;;17.04;39.46
7264;BME280;3673;52.480;13.348;2023-05-10T02:47:46;100702.56;;;16.94;39.62
7264;BME280;3673;52.480;13.348;2023-05-10T02:50:13;100700.56;;;17.03;39.51
7264;BME280;3673;52.480;13.348;2023-05-10T02:52:44;100698.38;;;16.86;39.65
7264;BME280;3673;52.480;13.348;2023-05-10T02:55:16;100702.88;;;16.82;39.93
7264;BME280;3673;52.480;13.348;2023-05-10T02:57:46;100696.88;;;16.76;39.84
7264;BME280;3673;52.480;13.348;2023-05-10T03:00:15;100698.50;;;16.81;40.13
7264;BME280;3673;52.480;13.348;2023-05-10T03:02:42;100701.22;;;16.78;39.88
7264;BME280;3673;52.480;13.348;2023-05-10T03:05:08;100697.16;;;16.65;40.00
7264;BME280;3673;52.480;13.348;2023-05-10T03:07:35;100701.66;;;16.62;40.21
7264;BME280;3673;52.480;13.348;2023-05-10T03:10:04;100703.53;;;16.58;40.18
7264;BME280;3673;52.480;13.348;2023-05-10T03:12:47;100700.06;;;16.55;40.02
7264;BME280;3673;52.480;13.348;2023-05-10T03:15:22;100698.94;;;16.65;39.81
7264;BME280;3673;52.480;13.348;2023-05-10T03:17:55;100693.28;;;16.44;40.24
7264;BME280;3673;52.480;13.348;2023-05-10T03:20:30;100698.34;;;16.54;40.33
7264;BME280;3673;52.480;13.348;2023-05-10T03:23:04;100693.34;;;16.41;40.49
7264;BME280;3673;52.480;13.348;2023-05-10T03:25:33;100690.59;;;16.47;40.25
7264;BME280;3673;52.480;13.348;2023-05-10T03:28:03;100688.47;;;16.62;40.20
7264;BME280;3673;52.480;13.348;2023-05-10T03:30:31;100689.47;;;16.58;40.18
7264;BME280;3673;52.480;13.348;2023-05-10T03:33:04;100696.09;;;16.72;39.70
7264;BME280;3673;52.480;13.348;2023-05-10T03:35:32;100689.41;;;16.59;39.91
7264;BME280;3673;52.480;13.348;2023-05-10T03:37:58;100690.69;;;16.43;40.42
7264;BME280;3673;52.480;13.348;2023-05-10T03:40:26;100688.63;;;16.56;40.03
7264;BME280;3673;52.480;13.348;2023-05-10T03:42:54;100687.00;;;16.48;39.95
7264;BME280;3673;52.480;13.348;2023-05-10T03:45:22;100688.75;;;16.49;40.14
7264;BME280;3673;52.480;13.348;2023-05-10T03:47:49;100684.63;;;16.39;40.41
7264;BME280;3673;52.480;13.348;2023-05-10T03:50:16;100684.47;;;16.45;40.30
7264;BME280;3673;52.480;13.348;2023-05-10T03:52:43;100685.31;;;16.47;40.15
7264;BME280;3673;52.480;13.348;2023-05-10T03:55:10;100685.13;;;16.54;40.09
7264;BME280;3673;52.480;13.348;2023-05-10T03:57:37;100682.78;;;16.43;40.06
7264;BME280;3673;52.480;13.348;2023-05-10T04:00:06;100685.31;;;16.46;40.04
7264;BME280;3673;52.480;13.348;2023-05-10T04:02:34;100684.44;;;16.47;40.10
7264;BME280;3673;52.480;13.348;2023-05-10T04:05:01;100684.72;;;16.35;40.38
7264;BME280;3673;52.480;13.348;2023-05-10T04:07:28;100689.28;;;16.28;40.33
7264;BME280;3673;52.480;13.348;2023-05-10T04:09:55;100681.28;;;16.33;40.38
7264;BME280;3673;52.480;13.348;2023-05-10T04:12:21;100680.28;;;16.37;40.22
7264;BME280;3673;52.480;13.348;2023-05-10T04:14:48;100677.66;;;16.37;40.33
7264;BME280;3673;52.480;13.348;2023-05-10T04:17:15;100685.25;;;16.49;39.97
7264;BME280;3673;52.480;13.348;2023-05-10T04:19:43;100683.44;;;16.51;40.19
7264;BME280;3673;52.480;13.348;2023-05-10T04:22:10;100683.47;;;16.49;40.04
7264;BME280;3673;52.480;13.348;2023-05-10T04:24:36;100681.72;;;16.48;40.17
7264;BME280;3673;52.480;13.348;2023-05-10T04:27:03;100671.81;;;16.58;39.92
7264;BME280;3673;52.480;13.348;2023-05-10T04:29:30;100684.66;;;16.72;39.87
7264;BME280;3673;52.480;13.348;2023-05-10T04:31:57;100679.88;;;16.86;39.52
7264;BME280;3673;52.480;13.348;2023-05-10T04:34:24;100680.50;;;16.95;39.27
7264;BME280;3673;52.480;13.348;2023-05-10T04:36:52;100673.34;;;16.99;39.19
7264;BME280;3673;52.480;13.348;2023-05-10T04:39:19;100672.63;;;16.94;39.06
7264;BME280;3673;52.480;13.348;2023-05-10T04:41:45;100669.03;;;16.64;39.65
7264;BME280;3673;52.480;13.348;2023-05-10T04:44:12;100670.13;;;16.57;39.85
7264;BME280;3673;52.480;13.348;2023-05-10T04:46:39;100667.81;;;16.76;39.73
7264;BME280;3673;52.480;13.348;2023-05-10T04:49:06;100668.13;;;16.97;39.26
7264;BME280;3673;52.480;13.348;2023-05-10T04:51:33;100657.88;;;16.85;39.34
7264;BME280;3673;52.480;13.348;2023-05-10T04:54:01;100666.41;;;16.64;39.60
7264;BME280;3673;52.480;13.348;2023-05-10T04:56:28;100659.44;;;16.92;39.21
7264;BME280;3673;52.480;13.348;2023-05-10T04:58:54;100664.44;;;17.02;38.93
7264;BME280;3673;52.480;13.348;2023-05-10T05:01:21;100681.34;;;16.96;39.14
7264;BME280;3673;52.480;13.348;2023-05-10T05:03:48;100666.31;;;16.98;39.02
7264;BME280;3673;52.480;13.348;2023-05-10T05:06:15;100662.81;;;16.67;39.64
7264;BME280;3673;52.480;13.348;2023-05-10T05:08:42;100674.31;;;16.96;39.01
7264;BME280;3673;52.480;13.348;2023-05-10T05:11:10;100669.00;;;16.96;39.22
7264;BME280;3673;52.480;13.348;2023-05-10T05:13:37;100654.03;;;17.26;38.55
7264;BME280;3673;52.480;13.348;2023-05-10T05:16:05;100659.78;;;17.11;38.97
7264;BME280;3673;52.480;13.348;2023-05-10T05:18:32;100657.75;;;17.21;38.34
7264;BME280;3673;52.480;13.348;2023-05-10T05:20:59;100659.63;;;17.16;38.52
7264;BME280;3673;52.480;13.348;2023-05-10T05:23:26;100660.41;;;17.19;38.82
7264;BME280;3673;52.480;13.348;2023-05-10T05:25:53;100651.63;;;17.19;38.55
7264;BME280;3673;52.480;13.348;2023-05-10T05:28:21;100656.16;;;17.44;38.16
7264;BME280;3673;52.480;13.348;2023-05-10T05:30:48;100656.78;;;17.23;38.38
7264;BME280;3673;52.480;13.348;2023-05-10T05:33:15;100645.03;;;17.32;38.21
7264;BME280;3673;52.480;13.348;2023-05-10T05:35:42;100641.00;;;17.49;38.21
7264;BME280;3673;52.480;13.348;2023-05-10T05:38:13;100641.75;;;17.53;37.99
7264;BME280;3673;52.480;13.348;2023-05-10T05:40:39;100645.91;;;17.62;38.09
7264;BME280;3673;52.480;13.348;2023-05-10T05:43:06;100651.59;;;17.48;38.17
7264;BME280;3673;52.480;13.348;2023-05-10T05:45:34;100652.09;;;17.33;38.58
7264;BME280;3673;52.480;13.348;2023-05-10T05:48:01;100643.41;;;17.85;37.74
7264;BME280;3673;52.480;13.348;2023-05-10T05:50:28;100643.13;;;17.94;37.59
7264;BME280;3673;52.480;13.348;2023-05-10T05:52:55;100639.53;;;17.69;37.93
7264;BME280;3673;52.480;13.348;2023-05-10T05:55:22;100641.06;;;17.76;37.77
7264;BME280;3673;52.480;13.348;2023-05-10T05:57:49;100637.78;;;17.95;37.58
7264;BME280;3673;52.480;13.348;2023-05-10T06:00:17;100641.25;;;17.97;37.55
7264;BME280;3673;52.480;13.348;2023-05-10T06:02:45;100645.50;;;18.01;37.67
7264;BME280;3673;52.480;13.348;2023-05-10T06:05:11;100648.31;;;17.71;38.21
7264;BME280;3673;52.480;13.348;2023-05-10T06:07:39;100652.72;;;18.24;37.44
7264;BME280;3673;52.480;13.348;2023-05-10T06:10:07;100655.84;;;18.62;36.94
7264;BME280;3673;52.480;13.348;2023-05-10T06:12:34;100651.06;;;18.20;37.49
7264;BME280;3673;52.480;13.348;2023-05-10T06:15:01;100650.81;;;18.28;37.47
7264;BME280;3673;52.480;13.348;2023-05-10T06:17:28;100657.31;;;18.44;37.21
7264;BME280;3673;52.480;13.348;2023-05-10T06:19:56;100647.25;;;18.02;37.94
7264;BME280;3673;52.480;13.348;2023-05-10T06:22:23;100647.31;;;18.54;37.30
7264;BME280;3673;52.480;13.348;2023-05-10T06:24:50;100650.00;;;18.77;36.81
7264;BME280;3673;52.480;13.348;2023-05-10T06:27:17;100646.41;;;18.55;37.28
7264;BME280;3673;52.480;13.348;2023-05-10T06:29:43;100655.50;;;18.95;36.79
7264;BME280;3673;52.480;13.348;2023-05-10T06:32:10;100647.25;;;18.80;36.93
7264;BME280;3673;52.480;13.348;2023-05-10T06:34:37;100640.84;;;19.09;36.62
7264;BME280;3673;52.480;13.348;2023-05-10T06:37:05;100641.16;;;19.24;36.17
7264;BME280;3673;52.480;13.348;2023-05-10T06:39:32;100661.03;;;19.13;36.16
7264;BME280;3673;52.480;13.348;2023-05-10T06:41:59;100648.53;;;19.16;36.20
7264;BME280;3673;52.480;13.348;2023-05-10T06:44:27;100644.38;;;19.56;35.44
7264;BME280;3673;52.480;13.348;2023-05-10T06:46:54;100649.56;;;19.59;35.60
7264;BME280;3673;52.480;13.348;2023-05-10T06:49:21;100647.88;;;20.01;35.44
7264;BME280;3673;52.480;13.348;2023-05-10T06:51:48;100652.34;;;19.99;34.78
7264;BME280;3673;52.480;13.348;2023-05-10T06:54:16;100653.72;;;19.87;34.90
7264;BME280;3673;52.480;13.348;2023-05-10T06:56:43;100648.38;;;19.44;35.29
7264;BME280;3673;52.480;13.348;2023-05-10T06:59:10;100649.09;;;19.71;35.23
7264;BME280;3673;52.480;13.348;2023-05-10T07:01:37;100641.56;;;19.37;35.56
7264;BME280;3673;52.480;13.348;2023-05-10T07:04:04;100648.16;;;19.50;35.58
7264;BME280;3673;52.480;13.348;2023-05-10T07:06:33;100646.91;;;20.02;35.20
7264;BME280;3673;52.480;13.348;2023-05-10T07:09:00;100648.06;;;20.38;34.32
7264;BME280;3673;52.480;13.348;2023-05-10T07:11:28;100637.06;;;19.84;35.14
7264;BME280;3673;52.480;13.348;2023-05-10T07:13:55;100647.34;;;20.13;34.68
7264;BME280;3673;52.480;13.348;2023-05-10T07:16:21;100646.44;;;19.71;35.27
7264;BME280;3673;52.480;13.348;2023-05-10T07:18:49;100632.75;;;19.81;35.44
7264;BME280;3673;52.480;13.348;2023-05-10T07:21:16;100630.63;;;20.11;34.96
7264;BME280;3673;52.480;13.348;2023-05-10T07:23:42;100635.72;;;20.16;34.82
7264;BME280;3673;52.480;13.348;2023-05-10T07:26:09;100636.84;;;20.10;35.24
7264;BME280;3673;52.480;13.348;2023-05-10T07:28:38;100632.28;;;20.14;34.81
7264;BME280;3673;52.480;13.348;2023-05-10T07:31:05;100637.06;;;20.68;34.10
7264;BME280;3673;52.480;13.348;2023-05-10T07:33:31;100633.06;;;20.96;33.78
7264;BME280;3673;52.480;13.348;2023-05-10T07:35:58;100636.22;;;20.86;33.77
7264;BME280;3673;52.480;13.348;2023-05-10T07:38:25;100633.94;;;20.58;34.13
7264;BME280;3673;52.480;13.348;2023-05-10T07:40:52;100634.72;;;20.99;33.70
7264;BME280;3673;52.480;13.348;2023-05-10T07:43:18;100632.66;;;21.05;33.68
7264;BME280;3673;52.480;13.348;2023-05-10T07:45:47;100632.28;;;20.94;33.70
7264;BME280;3673;52.480;13.348;2023-05-10T07:48:13;100633.84;;;20.98;32.95
7264;BME280;3673;52.480;13.348;2023-05-10T07:50:41;100634.00;;;21.16;33.17
7264;BME280;3673;52.480;13.348;2023-05-10T07:53:07;100629.25;;;21.02;32.94
7264;BME280;3673;52.480;13.348;2023-05-10T07:55:34;100625.22;;;21.51;32.75
7264;BME280;3673;52.480;13.348;2023-05-10T07:58:01;100621.41;;;21.56;32.48
7264;BME280;3673;52.480;13.348;2023-05-10T08:00:28;100633.28;;;21.68;32.35
7264;BME280;3673;52.480;13.348;2023-05-10T08:02:56;100632.72;;;21.79;32.34
7264;BME280;3673;52.480;13.348;2023-05-10T08:05:22;100634.41;;;21.81;32.37
7264;BME280;3673;52.480;13.348;2023-05-10T08:07:49;100634.53;;;21.97;31.89
7264;BME280;3673;52.480;13.348;2023-05-10T08:10:16;100637.09;;;22.34;31.10
7264;BME280;3673;52.480;13.348;2023-05-10T08:12:43;100633.00;;;22.44;31.07
7264;BME280;3673;52.480;13.348;2023-05-10T08:15:10;100625.31;;;22.38;31.24
7264;BME280;3673;52.480;13.348;2023-05-10T08:17:37;100627.59;;;22.46;30.93
7264;BME280;3673;52.480;13.348;2023-05-10T08:20:06;100637.41;;;22.28;31.56
7264;BME280;3673;52.480;13.348;2023-05-10T08:22:33;100623.97;;;22.47;31.19
7264;BME280;3673;52.480;13.348;2023-05-10T08:25:00;100634.66;;;22.30;31.47
7264;BME280;3673;52.480;13.348;2023-05-10T08:27:27;100635.41;;;21.79;32.41
7264;BME280;3673;52.480;13.348;2023-05-10T08:29:54;100634.00;;;22.08;31.79
7264;BME280;3673;52.480;13.348;2023-05-10T08:32:20;100631.66;;;21.83;32.29
7264;BME280;3673;52.480;13.348;2023-05-10T08:34:47;100627.34;;;22.50;31.49
7264;BME280;3673;52.480;13.348;2023-05-10T08:37:15;100630.84;;;22.85;30.88
7264;BME280;3673;52.480;13.348;2023-05-10T08:39:42;100633.75;;;22.12;31.80
7264;BME280;3673;52.480;13.348;2023-05-10T08:42:09;100638.09;;;22.15;31.80
7264;BME280;3673;52.480;13.348;2023-05-10T08:44:36;100629.31;;;22.47;31.76
7264;BME280;3673;52.480;13.348;2023-05-10T08:47:05;100640.31;;;22.58;31.17
7264;BME280;3673;52.480;13.348;2023-05-10T08:49:33;100637.75;;;22.89;30.91
7264;BME280;3673;52.480;13.348;2023-05-10T08:52:03;100639.66;;;22.87;30.73
7264;BME280;3673;52.480;13.348;2023-05-10T08:54:33;100632.84;;;22.47;31.40
7264;BME280;3673;52.480;13.348;2023-05-10T08:57:00;100633.91;;;23.28;30.53
7264;BME280;3673;52.480;13.348;2023-05-10T08:59:27;100635.16;;;23.21;30.68
7264;BME280;3673;52.480;13.348;2023-05-10T09:01:57;100637.47;;;23.59;30.48
7264;BME280;3673;52.480;13.348;2023-05-10T09:04:24;100631.50;;;24.01;29.76
7264;BME280;3673;52.480;13.348;2023-05-10T09:06:51;100640.56;;;24.29;29.19
7264;BME280;3673;52.480;13.348;2023-05-10T09:09:19;100633.53;;;24.12;29.02
7264;BME280;3673;52.480;13.348;2023-05-10T09:11:48;100638.06;;;24.55;28.53
7264;BME280;3673;52.480;13.348;2023-05-10T09:14:15;100628.78;;;24.47;28.94
7264;BME280;3673;52.480;13.348;2023-05-10T09:16:42;100636.84;;;24.61;28.57
7264;BME280;3673;52.480;13.348;2023-05-10T09:19:10;100645.47;;;24.36;28.78
7264;BME280;3673;52.480;13.348;2023-05-10T09:21:37;100636.47;;;24.67;28.69
7264;BME280;3673;52.480;13.348;2023-05-10T09:24:05;100643.25;;;24.73;28.28
7264;BME280;3673;52.480;13.348;2023-05-10T09:26:32;100637.59;;;25.21;27.72
7264;BME280;3673;52.480;13.348;2023-05-10T09:29:02;100644.97;;;25.32;27.53
7264;BME280;3673;52.480;13.348;2023-05-10T09:31:45;100644.75;;;25.21;28.21
7264;BME280;3673;52.480;13.348;2023-05-10T09:34:17;100640.44;;;24.90;28.03
7264;BME280;3673;52.480;13.348;2023-05-10T09:36:52;100639.72;;;24.72;28.55
7264;BME280;3673;52.480;13.348;2023-05-10T09:39:20;100648.53;;;24.74;28.26
7264;BME280;3673;52.480;13.348;2023-05-10T09:41:47;100647.72;;;25.02;28.18
7264;BME280;3673;52.480;13.348;2023-05-10T09:44:18;100650.97;;;24.93;28.11
7264;BME280;3673;52.480;13.348;2023-05-10T09:46:50;100643.53;;;24.98;28.32
7264;BME280;3673;52.480;13.348;2023-05-10T09:49:18;100644.53;;;25.52;27.84
7264;BME280;3673;52.480;13.348;2023-05-10T09:51:45;100639.88;;;26.09;27.14
7264;BME280;3673;52.480;13.348;2023-05-10T09:54:14;100646.25;;;26.47;26.15
7264;BME280;3673;52.480;13.348;2023-05-10T09:56:42;100646.84;;;26.90;25.77
7264;BME280;3673;52.480;13.348;2023-05-10T09:59:11;100650.97;;;27.57;24.47
7264;BME280;3673;52.480;13.348;2023-05-10T10:01:40;100646.31;;;27.10;24.50
7264;BME280;3673;52.480;13.348;2023-05-10T10:04:09;100651.66;;;27.85;24.22
7264;BME280;3673;52.480;13.348;2023-05-10T10:06:37;100648.41;;;26.68;25.63
7264;BME280;3673;52.480;13.348;2023-05-10T10:09:05;100642.66;;;26.86;25.36
7264;BME280;3673;52.480;13.348;2023-05-10T10:11:33;100645.09;;;27.27;24.90
7264;BME280;3673;52.480;13.348;2023-05-10T10:14:01;100641.13;;;28.29;23.65
7264;BME280;3673;52.480;13.348;2023-05-10T10:16:30;100643.91;;;28.62;23.19
7264;BME280;3673;52.480;13.348;2023-05-10T10:18:58;100642.75;;;28.32;23.62
7264;BME280;3673;52.480;13.348;2023-05-10T10:21:25;100641.81;;;28.79;23.24
7264;BME280;3673;52.480;13.348;2023-05-10T10:23:52;100643.81;;;28.29;23.68
7264;BME280;3673;52.480;13.348;2023-05-10T10:26:19;100640.59;;;28.00;23.80
7264;BME280;3673;52.480;13.348;2023-05-10T10:28:57;100635.75;;;27.82;23.51
7264;BME280;3673;52.480;13.348;2023-05-10T10:31:34;100622.22;;;27.22;24.29
7264;BME280;3673;52.480;13.348;2023-05-10T10:34:08;100635.13;;;27.17;24.37
7264;BME280;3673;52.480;13.348;2023-05-10T10:36:46;100636.59;;;28.30;23.53
7264;BME280;3673;52.480;13.348;2023-05-10T10:39:14;100642.63;;;28.79;22.63
7264;BME280;3673;52.480;13.348;2023-05-10T10:41:51;100638.91;;;29.48;21.85
7264;BME280;3673;52.480;13.348;2023-05-10T10:44:36;100642.75;;;28.78;22.48
7264;BME280;3673;52.480;13.348;2023-05-10T10:47:24;100631.66;;;29.16;22.14
7264;BME280;3673;52.480;13.348;2023-05-10T10:50:08;100628.44;;;28.77;22.55
7264;BME280;3673;52.480;13.348;2023-05-10T10:52:39;100630.03;;;29.69;22.33
7264;BME280;3673;52.480;13.348;2023-05-10T10:55:08;100630.00;;;29.91;21.39
7264;BME280;3673;52.480;13.348;2023-05-10T10:57:47;100625.53;;;30.12;21.34
7264;BME280;3673;52.480;13.348;2023-05-10T11:00:24;100627.69;;;30.50;21.03
7264;BME280;3673;52.480;13.348;2023-05-10T11:02:53;100617.75;;;31.22;19.69
7264;BME280;3673;52.480;13.348;2023-05-10T11:05:41;100627.09;;;30.46;20.74
7264;BME280;3673;52.480;13.348;2023-05-10T11:08:18;100615.63;;;31.26;20.05
7264;BME280;3673;52.480;13.348;2023-05-10T11:11:03;100629.47;;;30.60;20.15
7264;BME280;3673;52.480;13.348;2023-05-10T11:13:36;100635.03;;;30.16;20.90
7264;BME280;3673;52.480;13.348;2023-05-10T11:16:15;100612.88;;;30.33;20.65
7264;BME280;3673;52.480;13.348;2023-05-10T11:19:01;100611.75;;;30.47;21.30
7264;BME280;3673;52.480;13.348;2023-05-10T11:21:30;100612.78;;;31.37;19.93
7264;BME280;3673;52.480;13.348;2023-05-10T11:23:59;100608.81;;;31.81;19.18
7264;BME280;3673;52.480;13.348;2023-05-10T11:26:31;100623.25;;;32.10;19.22
7264;BME280;3673;52.480;13.348;2023-05-10T11:28:58;100624.25;;;32.19;18.95
7264;BME280;3673;52.480;13.348;2023-05-10T11:31:26;100611.50;;;31.71;19.19
7264;BME280;3673;52.480;13.348;2023-05-10T11:33:55;100616.44;;;31.66;18.76
7264;BME280;3673;52.480;13.348;2023-05-10T11:36:26;100622.38;;;32.09;19.44
7264;BME280;3673;52.480;13.348;2023-05-10T11:38:56;100609.41;;;32.61;18.62
7264;BME280;3673;52.480;13.348;2023-05-10T11:41:24;100616.09;;;32.38;18.22
7264;BME280;3673;52.480;13.348;2023-05-10T11:43:53;100613.03;;;31.54;18.51
7264;BME280;3673;52.480;13.348;2023-05-10T11:46:23;100615.69;;;31.45;18.89
7264;BME280;3673;52.480;13.348;2023-05-10T11:48:53;100618.84;;;32.28;18.15
7264;BME280;3673;52.480;13.348;2023-05-10T11:51:22;100610.63;;;32.76;17.81
7264;BME280;3673;52.480;13.348;2023-05-10T11:53:51;100622.22;;;32.78;17.61
7264;BME280;3673;52.480;13.348;2023-05-10T11:56:20;100616.53;;;32.52;17.99
7264;BME280;3673;52.480;13.348;2023-05-10T11:58:53;100613.38;;;32.57;18.06
7264;BME280;3673;52.480;13.348;2023-05-10T12:01:21;100616.97;;;32.38;18.48
7264;BME280;3673;52.480;13.348;2023-05-10T12:03:49;100621.56;;;33.40;17.90
7264;BME280;3673;52.480;13.348;2023-05-10T12:06:16;100622.97;;;33.07;17.65
7264;BME280;3673;52.480;13.348;2023-05-10T12:08:45;100624.13;;;31.51;18.24
7264;BME280;3673;52.480;13.348;2023-05-10T12:11:12;100625.09;;;32.57;17.93
7264;BME280;3673;52.480;13.348;2023-05-10T12:13:43;100624.75;;;32.03;18.21
7264;BME280;3673;52.480;13.348;2023-05-10T12:16:18;100613.66;;;31.87;19.00
7264;BME280;3673;52.480;13.348;2023-05-10T12:18:45;100622.53;;;32.18;18.81
7264;BME280;3673;52.480;13.348;2023-05-10T12:21:15;100621.94;;;32.52;18.84
7264;BME280;3673;52.480;13.348;2023-05-10T12:23:42;100618.13;;;32.36;18.58
7264;BME280;3673;52.480;13.348;2023-05-10T12:26:11;100626.59;;;31.93;18.69
7264;BME280;3673;52.480;13.348;2023-05-10T12:28:39;100625.09;;;32.48;18.14
7264;BME280;3673;52.480;13.348;2023-05-10T12:31:07;100620.22;;;32.51;18.04
7264;BME280;3673;52.480;13.348;2023-05-10T12:33:36;100615.97;;;32.20;18.54
7264;BME280;3673;52.480;13.348;2023-05-10T12:36:05;100621.47;;;31.99;18.88
7264;BME280;3673;52.480;13.348;2023-05-10T12:38:34;100615.22;;;32.47;18.34
7264;BME280;3673;52.480;13.348;2023-05-10T12:41:05;100620.53;;;33.14;18.02
7264;BME280;3673;52.480;13.348;2023-05-10T12:43:33;100614.63;;;33.28;17.69
7264;BME280;3673;52.480;13.348;2023-05-10T12:46:07;100633.38;;;32.66;18.26
7264;BME280;3673;52.480;13.348;2023-05-10T12:48:34;100627.47;;;32.80;18.05
7264;BME280;3673;52.480;13.348;2023-05-10T12:51:01;100629.31;;;31.93;18.39
7264;BME280;3673;52.480;13.348;2023-05-10T12:53:28;100622.66;;;32.45;17.91
7264;BME280;3673;52.480;13.348;2023-05-10T12:55:55;100630.00;;;33.37;18.02
7264;BME280;3673;52.480;13.348;2023-05-10T12:58:22;100625.19;;;32.85;17.64
7264;BME280;3673;52.480;13.348;2023-05-10T13:00:49;100635.50;;;32.72;17.51
7264;BME280;3673;52.480;13.348;2023-05-10T13:03:18;100635.78;;;32.40;18.17
7264;BME280;3673;52.480;13.348;2023-05-10T13:05:45;100619.34;;;31.93;18.13
7264;BME280;3673;52.480;13.348;2023-05-10T13:08:12;100630.34;;;32.78;18.11
7264;BME280;3673;52.480;13.348;2023-05-10T13:10:41;100624.63;;;31.85;18.56
7264;BME280;3673;52.480;13.348;2023-05-10T13:13:08;100622.00;;;32.99;17.83